createdAt,value
2023-05-19T00:01:31.256Z,8.77
2023-05-19T00:04:18.464Z,8.71
2023-05-19T00:07:08.383Z,8.67
2023-05-19T00:09:55.106Z,8.64
2023-05-19T00:12:42.981Z,8.57
2023-05-19T00:15:29.653Z,8.52
2023-05-19T00:18:16.823Z,8.45
2023-05-19T00:21:03.376Z,8.40
2023-05-19T00:23:50.018Z,8.33
2023-05-19T00:26:37.251Z,8.28
2023-05-19T00:29:24.530Z,8.25
2023-05-19T00:32:12.187Z,8.23
2023-05-19T00:34:59.912Z,8.21
2023-05-19T00:37:46.725Z,8.17
2023-05-19T00:40:36.293Z,8.15
2023-05-19T00:43:22.931Z,8.13
2023-05-19T00:46:11.071Z,8.10
2023-05-19T00:48:57.626Z,8.09
2023-05-19T00:51:44.319Z,8.08
2023-05-19T00:54:31.428Z,8.03
2023-05-19T00:57:18.053Z,7.99
2023-05-19T01:00:05.785Z,7.97
2023-05-19T01:02:52.622Z,8.48
2023-05-19T01:05:41.786Z,10.68
2023-05-19T01:08:31.683Z,12.46
2023-05-19T01:11:17.888Z,13.00
2023-05-19T01:14:04.380Z,11.96
2023-05-19T01:16:57.455Z,11.07
2023-05-19T01:19:56.374Z,10.48
2023-05-19T01:23:05.183Z,10.06
2023-05-19T01:25:51.652Z,9.75
2023-05-19T01:28:49.916Z,9.51
2023-05-19T01:31:38.572Z,9.26
2023-05-19T01:34:27.133Z,9.03
2023-05-19T01:37:16.267Z,8.83
2023-05-19T01:40:02.774Z,8.67
2023-05-19T01:42:54.667Z,8.53
2023-05-19T01:45:42.989Z,8.40
2023-05-19T01:48:30.738Z,8.30
2023-05-19T01:51:17.377Z,8.20
2023-05-19T01:54:03.878Z,8.13
2023-05-19T01:57:04.283Z,8.08
2023-05-19T02:00:20.544Z,8.03
2023-05-19T02:03:22.706Z,7.97
2023-05-19T02:06:37.086Z,8.55
2023-05-19T02:09:33.388Z,11.09
2023-05-19T02:12:34.619Z,12.64
2023-05-19T02:15:25.970Z,12.49
2023-05-19T02:18:14.108Z,11.33
2023-05-19T02:21:02.376Z,10.54
2023-05-19T02:23:48.963Z,10.00
2023-05-19T02:26:35.243Z,9.61
2023-05-19T02:29:23.865Z,9.31
2023-05-19T02:32:11.842Z,9.10
2023-05-19T02:35:00.191Z,8.92
2023-05-19T02:37:46.685Z,8.77
2023-05-19T02:40:34.099Z,8.62
2023-05-19T02:43:20.946Z,8.48
2023-05-19T02:46:07.488Z,8.34
2023-05-19T02:48:54.052Z,8.23
2023-05-19T02:51:40.781Z,8.14
2023-05-19T02:54:27.169Z,8.52
2023-05-19T02:57:13.739Z,10.67
2023-05-19T03:00:00.778Z,12.41
2023-05-19T03:02:47.547Z,12.99
2023-05-19T03:05:33.934Z,11.94
2023-05-19T03:08:20.791Z,11.02
2023-05-19T03:11:07.381Z,10.43
2023-05-19T03:13:53.812Z,10.02
2023-05-19T03:16:42.268Z,9.73
2023-05-19T03:19:29.277Z,9.49
2023-05-19T03:22:15.740Z,9.32
2023-05-19T03:25:02.492Z,9.15
2023-05-19T03:27:49.262Z,8.99
2023-05-19T03:30:35.716Z,8.88
2023-05-19T03:33:29.983Z,8.79
2023-05-19T03:36:17.517Z,8.74
2023-05-19T03:39:04.463Z,8.70
2023-05-19T03:41:51.401Z,8.67
2023-05-19T03:44:37.990Z,8.66
2023-05-19T03:47:24.951Z,9.25
2023-05-19T03:50:22.857Z,11.64
2023-05-19T03:53:16.220Z,13.44
2023-05-19T03:56:02.934Z,13.76
2023-05-19T03:58:50.061Z,12.75
2023-05-19T04:01:36.736Z,12.03
2023-05-19T04:04:23.654Z,11.61
2023-05-19T04:07:10.450Z,11.28
2023-05-19T04:09:57.493Z,11.05
2023-05-19T04:12:43.868Z,10.91
2023-05-19T04:15:30.370Z,10.80
2023-05-19T04:18:16.928Z,10.73
2023-05-19T04:21:03.777Z,10.68
2023-05-19T04:23:50.367Z,10.65
2023-05-19T04:26:38.443Z,10.64
2023-05-19T04:29:24.803Z,10.66
2023-05-19T04:32:11.751Z,10.68
2023-05-19T04:34:59.049Z,10.70
2023-05-19T04:37:46.382Z,10.73
2023-05-19T04:40:33.840Z,10.77
2023-05-19T04:43:22.357Z,10.83
2023-05-19T04:46:13.191Z,10.88
2023-05-19T04:49:01.365Z,10.95
2023-05-19T04:51:51.079Z,11.00
2023-05-19T04:54:41.960Z,11.06
2023-05-19T04:57:30.109Z,11.12
2023-05-19T05:00:17.432Z,11.19
2023-05-19T05:03:24.472Z,11.28
2023-05-19T05:06:11.732Z,11.35
2023-05-19T05:08:58.127Z,11.45
2023-05-19T05:11:45.169Z,11.58
2023-05-19T05:14:31.774Z,11.72
2023-05-19T05:17:19.137Z,11.90
2023-05-19T05:20:06.978Z,12.07
2023-05-19T05:22:54.145Z,12.24
2023-05-19T05:25:41.812Z,12.41
2023-05-19T05:28:28.514Z,12.62
2023-05-19T05:31:16.232Z,12.79
2023-05-19T05:34:03.153Z,12.93
2023-05-19T05:36:51.174Z,13.08
2023-05-19T05:39:38.120Z,13.22
2023-05-19T05:42:25.321Z,13.32
2023-05-19T05:45:12.915Z,13.43
2023-05-19T05:48:01.003Z,13.50
2023-05-19T05:50:49.125Z,13.59
2023-05-19T05:53:43.364Z,13.63
2023-05-19T05:56:30.791Z,13.66
2023-05-19T05:59:17.795Z,13.69
2023-05-19T06:02:05.176Z,13.73
2023-05-19T06:04:54.252Z,13.79
2023-05-19T06:07:41.659Z,13.85
2023-05-19T06:10:29.379Z,13.90
2023-05-19T06:13:18.923Z,13.98
2023-05-19T06:16:06.241Z,14.02
2023-05-19T06:18:59.045Z,14.09
2023-05-19T06:21:45.861Z,14.15
2023-05-19T06:24:32.750Z,14.16
2023-05-19T06:27:19.468Z,14.15
2023-05-19T06:30:08.797Z,14.13
2023-05-19T06:33:01.740Z,14.11
2023-05-19T06:35:48.400Z,14.08
2023-05-19T06:38:34.861Z,14.10
2023-05-19T06:41:21.968Z,14.16
2023-05-19T06:44:11.634Z,14.22
2023-05-19T06:46:58.191Z,14.38
2023-05-19T06:49:45.828Z,14.52
2023-05-19T06:52:33.268Z,14.68
2023-05-19T06:55:20.210Z,14.85
2023-05-19T06:58:08.364Z,15.00
2023-05-19T07:00:54.933Z,15.14
2023-05-19T07:03:42.575Z,15.29
2023-05-19T07:06:31.422Z,15.42
2023-05-19T07:09:18.333Z,15.55
2023-05-19T07:12:06.411Z,15.65
2023-05-19T07:14:53.687Z,15.76
2023-05-19T07:17:40.507Z,15.77
2023-05-19T07:20:28.458Z,15.78
2023-05-19T07:23:17.362Z,15.83
2023-05-19T07:26:05.761Z,15.91
2023-05-19T07:28:52.801Z,15.99
2023-05-19T07:31:39.427Z,16.00
2023-05-19T07:34:26.444Z,16.03
2023-05-19T07:37:12.709Z,16.09
2023-05-19T07:39:59.443Z,16.15
2023-05-19T07:42:46.058Z,16.22
2023-05-19T07:45:32.577Z,16.31
2023-05-19T07:48:22.503Z,16.38
2023-05-19T07:51:10.295Z,16.40
2023-05-19T07:53:57.508Z,16.43
2023-05-19T07:56:43.830Z,16.45
2023-05-19T07:59:30.491Z,16.46
2023-05-19T08:02:17.333Z,16.50
2023-05-19T08:05:04.652Z,16.55
2023-05-19T08:07:51.765Z,16.63
2023-05-19T08:10:38.309Z,16.72
2023-05-19T08:13:24.615Z,16.82
2023-05-19T08:16:10.762Z,16.88
2023-05-19T08:18:57.235Z,16.96
2023-05-19T08:21:44.741Z,16.99
2023-05-19T08:24:32.878Z,17.04
2023-05-19T08:27:19.418Z,17.12
2023-05-19T08:30:06.724Z,17.21
2023-05-19T08:32:52.967Z,17.28
2023-05-19T08:35:39.553Z,17.31
2023-05-19T08:38:26.637Z,17.35
2023-05-19T08:41:13.139Z,17.36
2023-05-19T08:43:59.806Z,17.40
2023-05-19T08:46:47.835Z,17.48
2023-05-19T08:49:42.384Z,17.51
2023-05-19T08:52:42.502Z,17.55
2023-05-19T08:55:42.156Z,17.62
2023-05-19T08:58:29.282Z,17.72
2023-05-19T09:01:19.260Z,17.84
2023-05-19T09:04:07.256Z,17.98
2023-05-19T09:06:54.190Z,18.06
2023-05-19T09:09:43.754Z,18.01
2023-05-19T09:12:30.368Z,17.90
2023-05-19T09:15:20.894Z,17.92
2023-05-19T09:18:12.666Z,18.02
2023-05-19T09:21:03.141Z,18.13
2023-05-19T09:23:50.148Z,18.33
2023-05-19T09:26:41.262Z,18.63
2023-05-19T09:29:27.861Z,18.91
2023-05-19T09:32:25.149Z,19.09
2023-05-19T09:35:17.183Z,19.26
2023-05-19T09:38:03.791Z,19.55
2023-05-19T09:40:50.068Z,19.85
2023-05-19T09:43:36.854Z,20.08
2023-05-19T09:46:29.935Z,20.25
2023-05-19T09:49:31.320Z,20.43
2023-05-19T09:52:18.312Z,20.57
2023-05-19T09:55:06.869Z,20.67
2023-05-19T09:57:56.240Z,20.74
2023-05-19T10:00:43.322Z,20.83
2023-05-19T10:03:32.583Z,20.83
2023-05-19T10:06:19.994Z,20.81
2023-05-19T10:09:06.375Z,20.82
2023-05-19T10:11:56.628Z,20.82
2023-05-19T10:14:43.349Z,20.67
2023-05-19T10:17:30.519Z,20.64
2023-05-19T10:20:17.895Z,20.58
2023-05-19T10:23:04.366Z,20.56
2023-05-19T10:25:55.456Z,20.57
2023-05-19T10:28:44.590Z,20.49
2023-05-19T10:31:34.182Z,20.41
2023-05-19T10:34:33.325Z,20.44
2023-05-19T10:37:37.762Z,20.59
2023-05-19T10:40:37.125Z,20.71
2023-05-19T10:43:54.570Z,20.83
2023-05-19T10:46:43.066Z,20.90
2023-05-19T10:49:35.572Z,21.06
2023-05-19T10:52:25.704Z,21.26
2023-05-19T10:55:17.713Z,21.39
2023-05-19T10:58:04.614Z,21.54
2023-05-19T11:01:00.697Z,21.53
2023-05-19T11:03:57.318Z,21.39
2023-05-19T11:06:51.931Z,21.21
2023-05-19T11:09:40.931Z,20.99
2023-05-19T11:12:27.957Z,20.71
2023-05-19T11:15:15.722Z,20.45
2023-05-19T11:18:04.577Z,20.09
2023-05-19T11:20:58.397Z,19.73
2023-05-19T11:23:45.227Z,19.37
2023-05-19T11:26:43.325Z,18.97
2023-05-19T11:29:32.877Z,18.64
2023-05-19T11:32:22.780Z,18.38
2023-05-19T11:35:10.267Z,18.23
2023-05-19T11:37:57.566Z,18.04
2023-05-19T11:40:44.497Z,17.91
2023-05-19T11:43:31.216Z,17.85
2023-05-19T11:46:18.083Z,17.78
2023-05-19T11:49:05.838Z,17.74
2023-05-19T11:51:52.528Z,17.70
2023-05-19T11:54:41.902Z,17.64
2023-05-19T11:57:28.507Z,17.48
2023-05-19T12:00:15.765Z,17.36
2023-05-19T12:03:02.025Z,17.18
2023-05-19T12:05:49.692Z,17.02
2023-05-19T12:08:37.540Z,16.85
2023-05-19T12:11:24.411Z,16.75
2023-05-19T12:14:12.323Z,16.66
2023-05-19T12:16:59.510Z,16.52
2023-05-19T12:19:48.061Z,16.45
2023-05-19T12:22:35.490Z,16.39
2023-05-19T12:25:23.263Z,16.36
2023-05-19T12:28:10.075Z,16.44
2023-05-19T12:30:58.534Z,16.53
2023-05-19T12:33:48.633Z,16.72
2023-05-19T12:36:35.367Z,16.83
2023-05-19T12:39:23.367Z,17.02
2023-05-19T12:42:12.458Z,17.28
2023-05-19T12:45:01.567Z,17.54
2023-05-19T12:47:51.358Z,17.71
2023-05-19T12:50:38.433Z,18.00
2023-05-19T12:53:27.648Z,18.29
2023-05-19T12:56:15.528Z,18.45
2023-05-19T12:59:02.331Z,18.56
2023-05-19T13:01:59.361Z,18.62
2023-05-19T13:04:46.244Z,18.54
2023-05-19T13:07:33.249Z,18.37
2023-05-19T13:10:20.726Z,18.20
2023-05-19T13:13:08.440Z,18.07
2023-05-19T13:15:55.675Z,17.97
2023-05-19T13:18:42.478Z,17.94
2023-05-19T13:21:28.628Z,17.91
2023-05-19T13:24:15.624Z,17.84
2023-05-19T13:27:03.292Z,17.81
2023-05-19T13:29:49.765Z,17.58
2023-05-19T13:32:36.269Z,17.37
2023-05-19T13:35:23.341Z,17.14
2023-05-19T13:38:10.826Z,16.94
2023-05-19T13:40:58.074Z,16.65
2023-05-19T13:43:44.799Z,16.39
2023-05-19T13:46:44.170Z,16.18
2023-05-19T13:49:31.611Z,15.92
2023-05-19T13:52:19.099Z,15.72
2023-05-19T13:55:07.543Z,15.57
2023-05-19T13:57:54.143Z,15.46
2023-05-19T14:00:41.591Z,15.34
2023-05-19T14:03:28.128Z,15.26
2023-05-19T14:06:14.751Z,15.24
2023-05-19T14:09:01.504Z,15.22
2023-05-19T14:11:47.891Z,15.22
2023-05-19T14:14:34.277Z,15.28
2023-05-19T14:17:21.205Z,15.38
2023-05-19T14:20:08.496Z,15.57
2023-05-19T14:22:55.592Z,15.75
2023-05-19T14:25:42.847Z,15.93
2023-05-19T14:28:29.711Z,16.10
2023-05-19T14:31:16.368Z,16.21
2023-05-19T14:34:03.185Z,16.21
2023-05-19T14:36:49.717Z,16.12
2023-05-19T14:39:36.141Z,16.07
2023-05-19T14:42:23.454Z,16.07
2023-05-19T14:45:11.213Z,16.05
2023-05-19T14:47:58.255Z,16.00
2023-05-19T14:50:44.821Z,15.91
2023-05-19T14:53:31.305Z,15.88
2023-05-19T14:56:17.936Z,15.82
2023-05-19T14:59:05.032Z,15.80
2023-05-19T15:01:51.867Z,15.79
2023-05-19T15:04:38.455Z,15.77
2023-05-19T15:07:25.603Z,15.73
2023-05-19T15:10:12.421Z,15.63
2023-05-19T15:13:00.614Z,15.52
2023-05-19T15:15:46.869Z,15.39
2023-05-19T15:18:34.231Z,15.20
2023-05-19T15:21:20.867Z,15.07
2023-05-19T15:24:07.327Z,14.99
2023-05-19T15:26:55.521Z,14.90
2023-05-19T15:29:41.896Z,14.80
2023-05-19T15:32:28.574Z,14.76
2023-05-19T15:35:15.218Z,15.21
2023-05-19T15:38:06.124Z,17.07
2023-05-19T15:40:53.518Z,17.39
2023-05-19T15:43:41.462Z,16.79
2023-05-19T15:46:28.937Z,16.30
2023-05-19T15:49:15.482Z,15.94
2023-05-19T15:52:03.155Z,15.69
2023-05-19T15:54:49.896Z,15.49
2023-05-19T15:57:36.349Z,15.36
2023-05-19T16:00:23.661Z,15.22
2023-05-19T16:03:10.485Z,15.05
2023-05-19T16:05:57.066Z,14.91
2023-05-19T16:08:43.678Z,14.80
2023-05-19T16:11:30.118Z,14.74
2023-05-19T16:14:16.811Z,15.24
2023-05-19T16:17:05.116Z,17.15
2023-05-19T16:19:51.652Z,17.85
2023-05-19T16:22:38.757Z,17.14
2023-05-19T16:25:25.957Z,16.45
2023-05-19T16:28:12.377Z,15.95
2023-05-19T16:31:00.339Z,15.57
2023-05-19T16:33:46.989Z,15.29
2023-05-19T16:36:33.478Z,15.06
2023-05-19T16:39:20.114Z,15.46
2023-05-19T16:42:07.032Z,16.97
2023-05-19T16:44:53.782Z,16.71
2023-05-19T16:47:40.735Z,15.99
2023-05-19T16:50:27.690Z,15.48
2023-05-19T16:53:14.353Z,15.10
2023-05-19T16:56:00.948Z,14.85
2023-05-19T16:58:47.410Z,14.68
2023-05-19T17:01:34.187Z,15.02
2023-05-19T17:04:21.048Z,16.88
2023-05-19T17:07:07.920Z,17.97
2023-05-19T17:09:55.973Z,17.43
2023-05-19T17:12:42.603Z,16.56
2023-05-19T17:15:29.129Z,15.92
2023-05-19T17:18:16.177Z,15.51
2023-05-19T17:21:05.033Z,15.19
2023-05-19T17:23:51.941Z,14.95
2023-05-19T17:26:39.797Z,14.77
2023-05-19T17:29:27.968Z,15.00
2023-05-19T17:32:14.501Z,16.84
2023-05-19T17:35:03.364Z,17.76
2023-05-19T17:37:50.164Z,16.90
2023-05-19T17:40:37.054Z,16.12
2023-05-19T17:43:23.730Z,15.58
2023-05-19T17:46:12.038Z,15.17
2023-05-19T17:48:59.035Z,14.86
2023-05-19T17:51:45.967Z,14.61
2023-05-19T17:54:33.027Z,14.39
2023-05-19T17:57:24.686Z,14.19
2023-05-19T18:00:12.855Z,14.80
2023-05-19T18:02:59.999Z,16.66
2023-05-19T18:05:48.162Z,17.33
2023-05-19T18:08:37.605Z,16.54
2023-05-19T18:11:24.211Z,15.68
2023-05-19T18:14:11.122Z,15.15
2023-05-19T18:16:58.288Z,14.78
2023-05-19T18:19:44.970Z,14.48
2023-05-19T18:22:31.475Z,14.23
2023-05-19T18:25:20.052Z,14.56
2023-05-19T18:28:06.541Z,16.44
2023-05-19T18:31:04.952Z,17.82
2023-05-19T18:33:51.342Z,17.73
2023-05-19T18:36:38.704Z,16.67
2023-05-19T18:39:27.299Z,15.83
2023-05-19T18:42:15.543Z,15.28
2023-05-19T18:45:01.985Z,14.83
2023-05-19T18:47:48.910Z,14.49
2023-05-19T18:50:36.564Z,14.21
2023-05-19T18:53:25.381Z,13.99
2023-05-19T18:56:12.799Z,14.42
2023-05-19T18:58:59.415Z,16.34
2023-05-19T19:01:46.035Z,17.67
2023-05-19T19:04:32.977Z,18.01
2023-05-19T19:07:19.685Z,16.97
2023-05-19T19:10:09.058Z,16.10
2023-05-19T19:12:55.354Z,15.49
2023-05-19T19:15:42.151Z,15.02
2023-05-19T19:18:28.611Z,14.67
2023-05-19T19:21:15.446Z,14.35
2023-05-19T19:24:02.173Z,14.52
2023-05-19T19:26:48.555Z,16.29
2023-05-19T19:29:35.562Z,17.26
2023-05-19T19:32:23.070Z,16.52
2023-05-19T19:35:09.721Z,15.63
2023-05-19T19:37:56.702Z,15.00
2023-05-19T19:40:43.630Z,14.56
2023-05-19T19:43:30.625Z,14.77
2023-05-19T19:46:17.150Z,16.51
2023-05-19T19:49:04.095Z,17.54
2023-05-19T19:51:51.396Z,16.91
2023-05-19T19:54:38.125Z,15.89
2023-05-19T19:57:25.570Z,15.14
2023-05-19T20:00:13.146Z,14.66
2023-05-19T20:03:04.463Z,14.30
2023-05-19T20:05:53.895Z,14.64
2023-05-19T20:08:40.527Z,16.44
2023-05-19T20:11:27.594Z,17.21
2023-05-19T20:14:13.995Z,16.40
2023-05-19T20:17:00.549Z,15.52
2023-05-19T20:19:48.324Z,14.88
2023-05-19T20:22:34.637Z,14.45
2023-05-19T20:25:21.355Z,14.68
2023-05-19T20:28:08.612Z,16.47
2023-05-19T20:30:55.307Z,17.26
2023-05-19T20:33:42.053Z,16.45
2023-05-19T20:36:29.167Z,15.59
2023-05-19T20:39:15.669Z,14.99
2023-05-19T20:42:01.950Z,14.57
2023-05-19T20:44:48.443Z,14.81
2023-05-19T20:47:35.637Z,16.61
2023-05-19T20:50:22.417Z,17.65
2023-05-19T20:53:09.368Z,17.01
2023-05-19T20:55:56.536Z,16.00
2023-05-19T20:58:43.165Z,15.27
2023-05-19T21:01:30.072Z,14.77
2023-05-19T21:04:16.580Z,14.37
2023-05-19T21:07:03.590Z,14.58
2023-05-19T21:09:51.602Z,16.36
2023-05-19T21:12:38.731Z,17.62
2023-05-19T21:15:25.290Z,17.35
2023-05-19T21:18:12.639Z,16.25
2023-05-19T21:21:02.943Z,15.43
2023-05-19T21:23:49.510Z,14.80
2023-05-19T21:26:36.085Z,14.35
2023-05-19T21:29:22.490Z,14.01
2023-05-19T21:32:09.385Z,14.37
2023-05-19T21:34:55.881Z,16.21
2023-05-19T21:37:42.251Z,17.43
2023-05-19T21:40:29.060Z,17.65
2023-05-19T21:43:16.048Z,16.63
2023-05-19T21:46:03.164Z,15.68
2023-05-19T21:48:49.735Z,15.00
2023-05-19T21:51:36.848Z,14.52
2023-05-19T21:54:23.510Z,14.72
2023-05-19T21:57:12.376Z,16.51
2023-05-19T21:59:58.959Z,17.76
2023-05-19T22:02:45.700Z,17.88
2023-05-19T22:05:35.198Z,16.76
2023-05-19T22:08:22.814Z,15.82
2023-05-19T22:11:09.555Z,15.15
2023-05-19T22:13:56.386Z,14.64
2023-05-19T22:16:43.728Z,14.75
2023-05-19T22:19:30.417Z,16.42
2023-05-19T22:22:17.452Z,17.63
2023-05-19T22:25:04.058Z,17.85
2023-05-19T22:27:50.742Z,16.80
2023-05-19T22:30:41.122Z,15.84
2023-05-19T22:33:27.967Z,15.15
2023-05-19T22:36:16.230Z,14.67
2023-05-19T22:39:02.556Z,14.67
2023-05-19T22:41:49.149Z,16.32
2023-05-19T22:44:35.825Z,17.62
2023-05-19T22:47:22.144Z,17.79
2023-05-19T22:50:10.179Z,16.71
2023-05-19T22:52:56.575Z,15.75
2023-05-19T22:55:43.190Z,15.06
2023-05-19T22:58:30.227Z,14.52
2023-05-19T23:01:17.197Z,14.69
2023-05-19T23:04:04.141Z,16.43
2023-05-19T23:06:50.975Z,17.50
2023-05-19T23:09:37.541Z,16.97
2023-05-19T23:12:24.278Z,15.93
2023-05-19T23:15:11.293Z,15.13
2023-05-19T23:17:57.928Z,14.56
2023-05-19T23:20:44.853Z,14.70
2023-05-19T23:23:31.519Z,16.40
2023-05-19T23:26:17.982Z,17.58
2023-05-19T23:29:04.667Z,17.54
2023-05-19T23:31:51.202Z,16.41
2023-05-19T23:34:38.047Z,15.54
2023-05-19T23:37:24.611Z,14.93
2023-05-19T23:40:12.065Z,14.49
2023-05-19T23:42:58.537Z,14.72
2023-05-19T23:45:45.202Z,16.46
2023-05-19T23:48:31.624Z,17.68
2023-05-19T23:51:17.963Z,17.95
2023-05-19T23:54:04.555Z,16.86
2023-05-19T23:56:51.361Z,15.89
2023-05-19T23:59:37.791Z,15.21
